Copan Ruinas Airport


Codes: MHRU/RUY
Name: Copan Ruinas Airport
City: Ruinas de Copan
Country: Honduras
Elevation: 1990 ft.

Photos at Copan Ruinas Airport


   Photos courtesy of SpottingLog. You can add your own sightings and photos by signing up for a free trial today.



No photos found.

Weather at Copan Ruinas Airport


Time (UTC)DescriptionTempratureWindCloud coverageVisibilityPressureHumidity
21-Feb-2024 03:00Few Clouds18°C4 mph, NE22%10000m1023hPa86%
21-Feb-2024 06:00Scattered Clouds17°C2 mph, NE43%10000m1023hPa91%
21-Feb-2024 09:00Overcast Clouds15°C2 mph, NE94%10000m1022hPa99%
21-Feb-2024 12:00Broken Clouds13°C2 mph, NE71%10000m1024hPa98%
21-Feb-2024 15:00Broken Clouds21°C4 mph, N77%10000m1024hPa58%
21-Feb-2024 18:00Broken Clouds25°C9 mph, NE60%10000m1021hPa47%
21-Feb-2024 21:00Broken Clouds23°C7 mph, NE66%10000m1019hPa60%
22-Feb-2024 00:00Broken Clouds18°C4 mph, N55%10000m1020hPa86%
22-Feb-2024 03:00Few Clouds15°C2 mph, NE18%10000m1022hPa99%
22-Feb-2024 06:00Scattered Clouds15°C2 mph, NE34%2883m1022hPa99%
22-Feb-2024 09:00Overcast Clouds16°C2 mph, NE89%10000m1020hPa90%
22-Feb-2024 12:00Overcast Clouds14°C2 mph, E87%10000m1020hPa94%
22-Feb-2024 15:00Few Clouds22°C2 mph, NE14%10000m1019hPa54%
22-Feb-2024 18:00Clear Sky30°C4 mph, N7%10000m1015hPa27%
22-Feb-2024 21:00Clear Sky31°C4 mph, N0%10000m1011hPa25%
23-Feb-2024 00:00Clear Sky21°C4 mph, NE0%10000m1013hPa62%
23-Feb-2024 03:00Clear Sky16°C2 mph, NE0%10000m1016hPa90%
23-Feb-2024 06:00Clear Sky15°C2 mph, SE3%10000m1016hPa96%
23-Feb-2024 09:00Clear Sky14°C2 mph, S7%10000m1014hPa95%
23-Feb-2024 12:00Clear Sky14°C4 mph, S6%10000m1014hPa87%
23-Feb-2024 15:00Clear Sky25°C2 mph, W2%10000m1014hPa46%
23-Feb-2024 18:00Clear Sky32°C4 mph, NW1%10000m1011hPa26%
23-Feb-2024 21:00Clear Sky32°C7 mph, N0%10000m1008hPa25%
24-Feb-2024 00:00Clear Sky22°C4 mph, NE0%10000m1012hPa62%
24-Feb-2024 03:00Clear Sky18°C2 mph, E0%10000m1016hPa79%
24-Feb-2024 06:00Clear Sky16°C2 mph, E0%10000m1017hPa93%
24-Feb-2024 09:00Clear Sky15°C2 mph, E3%10000m1016hPa96%
24-Feb-2024 12:00Clear Sky15°C2 mph, E3%10000m1018hPa96%
24-Feb-2024 15:00Clear Sky24°C4 mph, N5%10000m1018hPa59%
24-Feb-2024 18:00Clear Sky29°C7 mph, N3%10000m1016hPa37%
24-Feb-2024 21:00Clear Sky29°C9 mph, NE0%10000m1014hPa36%
25-Feb-2024 00:00Clear Sky21°C4 mph, NE3%10000m1017hPa65%
25-Feb-2024 03:00Clear Sky18°C4 mph, NE1%10000m1020hPa87%
25-Feb-2024 06:00Clear Sky17°C2 mph, NE4%10000m1020hPa98%
25-Feb-2024 09:00Scattered Clouds16°C2 mph, NE28%10000m1019hPa97%
25-Feb-2024 12:00Few Clouds16°C2 mph, NE23%10000m1020hPa98%
25-Feb-2024 15:00Scattered Clouds23°C4 mph, NE36%10000m1020hPa66%
25-Feb-2024 18:00Few Clouds28°C7 mph, NE22%10000m1017hPa43%
25-Feb-2024 21:00Clear Sky28°C7 mph, N2%10000m1014hPa42%
26-Feb-2024 00:00Clear Sky21°C4 mph, N4%10000m1016hPa74%